Terminal Aerodrome Forecast
Issued by NWS

Home | Current Version | Previous Version | Text Only | Print | Product List | Glossary On
Versions: 1 2 3 4 5 6 7 8 9 10 11 12 13 14 15 16 17
000
FTUS46 KLOX 231720
TAFVNY
TAF
KVNY 231720Z 2318/2418 36011KT P6SM SKC WS010/06030KT
     FM240300 01012KT P6SM SKC WS010/06035KT=

USA.gov is the U.S. government's official web portal to all federal, state and local government web resources and services.